Freeman, MO (64746)

10:50 PM CST on January 28, 2015 (GMT -0600)
Cass County, Freeman | Change Station
CLOSE
Current Station
Personal Weather Station
Location: Freeman, MO
Elevation: 961 ft
Nearby Weather Stations

Elev 961 ft 38.59 °N, 94.52 °W | Updated 15 seconds ago

Partly Cloudy
Partly Cloudy
57.4 °F
Feels Like 57.4 °F
N
13.6
Wind Variable Wind from West
Gusts 17.4 mph

Today
High -- | Low -- °F
--% Chance of Precip.
Yesterday
High -- | Low -- °F
Precip. -- in
7:27 AM 5:35 PM
Waxing Gibbous, 71% visible
Pressure 29.78 in
Visibility 10.0 miles
Clouds Clear
Dew Point 40 °F
Humidity 53%
Rainfall 0.00 in
Snow Depth Not available.
UV 0 out of 12
Pollen 2.00 out of 12
Air Quality Not available.
Flu Activity Not available.
METAR KOJC 290353Z AUTO 25006KT 10SM CLR 13/03 A2979 RMK AO2 SLP085 T01280033

More Conditions Fewer Conditions

Pressure 29.78 in
Visibility 10.0 miles
Clouds Clear
Dew Point 40 °F
Humidity 53%
Rainfall 0.00 in
Snow Depth Not available.
UV 0 out of 12
Pollen 2.00 out of 12
Air Quality Not available.
Flu Activity Not available.
METAR KOJC 290353Z AUTO 25006KT 10SM CLR 13/03 A2979 RMK AO2 SLP085 T01280033

More Conditions Fewer Conditions

10-Day Weather Forecast

Almanac

Astronomy

Jan. 28, 2015 Rise Set
Actual Time
Civil Twilight
Nautical Twilight
Astronomical Twilight
Moon
Length of Visible Light
Length of Day
Tomorrow will be .
, % of the Moon is Illuminated

Today's Extremes

State Highs State Lows

Community

WunderPhotos

Upload Photos

1,791,350 photos uploaded!

WunderBlogs® & News

Nearby

Air Quality

  Air Quality AQ Index Pollutant
Not available.

Snow Depth

Station Depth Elevation

Earthquake Activity

City Distance Mag. Time & Date
Minimum magnitude displayed is 2.5.

Coastal Water Temperatures

Place Temperature

Nearby Weather Stations